createdAt,value
2023-09-14T00:02:11.666Z,101039.72
2023-09-14T00:07:08.402Z,101040.25
2023-09-14T00:12:06.628Z,101038.53
2023-09-14T00:17:03.266Z,101042.41
2023-09-14T00:21:59.812Z,101043.47
2023-09-14T00:26:56.368Z,101043.94
2023-09-14T00:31:53.746Z,101042.78
2023-09-14T00:36:50.249Z,101035.09
2023-09-14T00:41:46.773Z,101050.88
2023-09-14T00:46:43.647Z,101049.69
2023-09-14T00:51:41.085Z,101045.34
2023-09-14T00:56:37.831Z,101048.59
2023-09-14T01:01:34.555Z,101051.34
2023-09-14T01:06:32.647Z,101050.16
2023-09-14T01:11:30.799Z,101045.50
2023-09-14T01:16:31.595Z,101043.06
2023-09-14T01:21:38.271Z,101041.38
2023-09-14T01:26:35.583Z,101033.34
2023-09-14T01:31:32.619Z,101035.16
2023-09-14T01:36:32.390Z,101035.88
2023-09-14T01:41:29.404Z,101035.25
2023-09-14T01:46:27.116Z,101030.78
2023-09-14T01:51:23.818Z,101031.59
2023-09-14T01:56:20.507Z,101030.44
2023-09-14T02:01:17.571Z,101028.16
2023-09-14T02:06:15.483Z,101026.97
2023-09-14T02:11:13.829Z,101019.72
2023-09-14T02:16:10.580Z,101023.72
2023-09-14T02:21:07.242Z,101023.97
2023-09-14T02:26:04.507Z,101025.97
2023-09-14T02:31:06.279Z,101026.25
2023-09-14T02:36:03.016Z,101034.75
2023-09-14T02:40:59.963Z,101043.06
2023-09-14T02:45:57.771Z,101044.50
2023-09-14T02:50:54.386Z,101038.69
2023-09-14T02:55:51.001Z,101041.22
2023-09-14T03:00:48.038Z,101043.78
2023-09-14T03:05:48.657Z,101040.81
2023-09-14T03:10:45.241Z,101034.13
2023-09-14T03:15:41.950Z,101036.00
2023-09-14T03:20:39.551Z,101041.06
2023-09-14T03:25:36.789Z,101047.03
2023-09-14T03:30:35.546Z,101042.53
2023-09-14T03:35:32.274Z,101045.06
2023-09-14T03:40:29.150Z,101056.25
2023-09-14T03:45:26.490Z,101064.72
2023-09-14T03:50:22.957Z,101061.63
2023-09-14T03:55:20.074Z,101065.28
2023-09-14T04:00:16.902Z,101072.06
2023-09-14T04:05:15.672Z,101077.31
2023-09-14T04:10:12.597Z,101069.25
2023-09-14T04:15:09.821Z,101072.06
2023-09-14T04:20:09.746Z,101071.94
2023-09-14T04:25:07.887Z,101074.25
2023-09-14T04:30:08.730Z,101078.72
2023-09-14T04:35:06.623Z,101082.81
2023-09-14T04:40:09.500Z,101090.19
2023-09-14T04:45:07.707Z,101086.47
2023-09-14T04:50:04.602Z,101076.88
2023-09-14T04:55:01.717Z,101081.25
2023-09-14T04:59:58.654Z,101082.66
2023-09-14T05:04:56.163Z,101091.31
2023-09-14T05:09:52.872Z,101081.81
2023-09-14T05:14:49.628Z,101087.88
2023-09-14T05:19:46.267Z,101087.13
2023-09-14T05:24:44.287Z,101096.81
2023-09-14T05:29:43.387Z,101088.78
2023-09-14T05:34:40.300Z,101086.53
2023-09-14T05:39:37.422Z,101078.56
2023-09-14T05:44:34.767Z,101078.94
2023-09-14T05:49:31.490Z,101084.94
2023-09-14T05:54:28.997Z,101085.81
2023-09-14T05:59:32.049Z,101082.84
2023-09-14T06:04:31.465Z,101077.41
2023-09-14T06:09:30.213Z,101079.13
2023-09-14T06:14:27.141Z,101083.28
2023-09-14T06:19:23.770Z,101081.41
2023-09-14T06:24:21.071Z,101084.16
2023-09-14T06:29:17.561Z,101084.41
2023-09-14T06:34:14.305Z,101094.13
2023-09-14T06:39:12.897Z,101084.50
2023-09-14T06:44:10.107Z,101098.06
2023-09-14T06:49:06.666Z,101099.72
2023-09-14T06:54:03.495Z,101104.41
2023-09-14T06:59:00.546Z,101115.03
2023-09-14T07:03:57.898Z,101111.69
2023-09-14T07:08:54.609Z,101103.63
2023-09-14T07:13:51.753Z,101119.13
2023-09-14T07:18:48.272Z,101121.56
2023-09-14T07:23:47.395Z,101126.94
2023-09-14T07:28:44.113Z,101126.19
2023-09-14T07:33:40.700Z,101125.81
2023-09-14T07:38:37.822Z,101132.59
2023-09-14T07:43:35.091Z,101126.69
2023-09-14T07:48:31.862Z,101134.31
2023-09-14T07:53:28.404Z,101123.72
2023-09-14T07:58:24.983Z,101117.00
2023-09-14T08:03:22.987Z,101113.84
2023-09-14T08:08:19.633Z,101105.38
2023-09-14T08:13:17.935Z,101109.88
2023-09-14T08:18:14.756Z,101113.47
2023-09-14T08:23:13.391Z,101110.19
2023-09-14T08:28:11.012Z,101101.41
2023-09-14T08:33:09.531Z,101094.22
2023-09-14T08:38:08.411Z,101086.31
2023-09-14T08:43:09.950Z,101093.00
2023-09-14T08:48:06.781Z,101090.94
2023-09-14T08:53:11.487Z,101085.97
2023-09-14T08:58:13.841Z,101076.69
2023-09-14T09:03:10.567Z,101059.88
2023-09-14T09:08:07.189Z,101065.59
2023-09-14T09:13:04.799Z,101060.41
2023-09-14T09:18:06.182Z,101058.56
2023-09-14T09:23:03.027Z,101056.75
2023-09-14T09:28:00.547Z,101059.06
2023-09-14T09:32:57.507Z,101049.91
2023-09-14T09:37:55.555Z,101050.41
2023-09-14T09:42:52.831Z,101044.41
2023-09-14T09:47:49.802Z,101045.91
2023-09-14T09:52:47.957Z,101049.84
2023-09-14T09:57:50.408Z,101041.94
2023-09-14T10:02:47.682Z,101037.03
2023-09-14T10:07:44.316Z,101035.38
2023-09-14T10:12:41.044Z,101034.72
2023-09-14T10:17:38.409Z,101029.28
2023-09-14T10:22:35.892Z,101019.13
2023-09-14T10:27:33.826Z,101019.13
2023-09-14T10:32:30.688Z,101017.94
2023-09-14T10:37:29.110Z,101005.38
2023-09-14T10:42:25.807Z,100997.38
2023-09-14T10:47:24.776Z,100991.91
2023-09-14T10:52:25.365Z,100994.25
2023-09-14T10:57:23.839Z,100988.50
2023-09-14T11:02:51.456Z,100980.34
2023-09-14T11:12:52.249Z,100970.78
2023-09-14T11:17:52.436Z,100969.88
2023-09-14T11:22:49.921Z,100974.28
2023-09-14T11:27:49.773Z,100967.44
2023-09-14T11:32:48.665Z,100964.00
2023-09-14T11:37:49.038Z,100958.22
2023-09-14T11:43:10.198Z,100956.31
2023-09-14T11:53:28.342Z,100949.00
2023-09-14T11:58:25.045Z,100943.09
2023-09-14T12:03:22.534Z,100943.16
2023-09-14T12:08:19.292Z,100943.56
2023-09-14T12:13:16.663Z,100932.41
2023-09-14T12:18:13.600Z,100922.25
2023-09-14T12:23:11.114Z,100925.50
2023-09-14T12:28:09.332Z,100920.00
2023-09-14T12:33:07.139Z,100919.25
2023-09-14T12:38:06.710Z,100918.06
2023-09-14T12:43:04.380Z,100913.94
2023-09-14T12:48:01.816Z,100911.97
2023-09-14T12:52:58.542Z,100898.53
2023-09-14T12:57:57.416Z,100902.44
2023-09-14T13:02:56.810Z,100896.78
2023-09-14T13:07:55.230Z,100889.19
2023-09-14T13:12:53.820Z,100876.28
2023-09-14T13:17:50.972Z,100879.28
2023-09-14T13:22:51.711Z,100879.63
2023-09-14T13:27:48.279Z,100874.31
2023-09-14T13:32:45.327Z,100882.31
2023-09-14T13:37:42.680Z,100876.16
2023-09-14T13:42:39.878Z,100873.63
2023-09-14T13:47:36.446Z,100873.84
2023-09-14T13:52:33.086Z,100869.88
2023-09-14T13:57:29.768Z,100861.78
2023-09-14T14:02:27.144Z,100866.34
2023-09-14T14:07:24.010Z,100864.88
2023-09-14T14:12:20.666Z,100867.00
2023-09-14T14:17:17.170Z,100863.91
2023-09-14T14:22:14.392Z,100864.16
2023-09-14T14:27:14.571Z,100858.59
2023-09-14T14:32:11.352Z,100863.19
2023-09-14T14:37:07.872Z,100853.53
2023-09-14T14:42:05.608Z,100850.72
2023-09-14T14:47:02.377Z,100850.03
2023-09-14T14:52:11.101Z,100853.78
2023-09-14T14:57:08.292Z,100848.84
2023-09-14T15:02:04.969Z,100845.31
2023-09-14T15:07:01.948Z,100837.69
2023-09-14T15:11:58.630Z,100838.34
2023-09-14T15:16:55.824Z,100837.59
2023-09-14T15:21:52.716Z,100843.75
2023-09-14T15:26:49.402Z,100844.69
2023-09-14T15:31:46.052Z,100849.03
2023-09-14T15:36:43.560Z,100845.66
2023-09-14T15:41:40.826Z,100835.66
2023-09-14T15:46:37.534Z,100855.13
2023-09-14T15:51:34.302Z,100855.38
2023-09-14T15:56:31.457Z,100847.44
2023-09-14T16:01:28.006Z,100851.38
2023-09-14T16:06:24.538Z,100858.94
2023-09-14T16:11:21.105Z,100854.94
2023-09-14T16:16:18.420Z,100861.94
2023-09-14T16:21:14.975Z,100862.56
2023-09-14T16:26:12.863Z,100852.97
2023-09-14T16:31:09.462Z,100858.97
2023-09-14T16:36:06.888Z,100863.91
2023-09-14T16:41:04.040Z,100862.19
2023-09-14T16:46:00.765Z,100862.88
2023-09-14T16:50:57.382Z,100869.13
2023-09-14T16:55:54.733Z,100872.56
2023-09-14T17:00:51.315Z,100876.94
2023-09-14T17:05:48.134Z,100869.13
2023-09-14T17:10:44.695Z,100880.31
2023-09-14T17:15:42.095Z,100886.41
2023-09-14T17:20:38.669Z,100901.41
2023-09-14T17:25:35.523Z,100907.69
2023-09-14T17:30:33.398Z,100916.66
2023-09-14T17:35:30.680Z,100913.47
2023-09-14T17:40:27.286Z,100926.59
2023-09-14T17:45:34.672Z,100939.00
2023-09-14T17:50:31.932Z,100942.19
2023-09-14T17:55:29.366Z,100951.84
2023-09-14T18:00:25.874Z,100953.31
2023-09-14T18:05:23.505Z,100957.03
2023-09-14T18:10:20.882Z,100959.22
2023-09-14T18:15:17.443Z,100960.03
2023-09-14T18:20:16.024Z,100963.59
2023-09-14T18:25:13.693Z,100967.31
2023-09-14T18:30:11.332Z,100967.50
2023-09-14T18:35:09.782Z,100967.94
2023-09-14T18:40:07.613Z,100972.16
2023-09-14T18:45:04.625Z,100971.69
2023-09-14T18:50:01.904Z,100975.88
2023-09-14T18:54:58.706Z,100980.13
2023-09-14T18:59:55.425Z,100979.28
2023-09-14T19:04:52.211Z,100978.75
2023-09-14T19:09:49.435Z,100980.63
2023-09-14T19:14:46.084Z,100999.69
2023-09-14T19:19:42.570Z,100994.50
2023-09-14T19:24:39.411Z,100988.72
2023-09-14T19:29:36.719Z,101004.78
2023-09-14T19:34:33.251Z,101001.75
2023-09-14T19:39:29.767Z,101006.13
2023-09-14T19:44:26.289Z,100999.84
2023-09-14T19:49:23.449Z,101007.81
2023-09-14T19:54:20.120Z,101007.66
2023-09-14T19:59:16.723Z,101014.06
2023-09-14T20:04:13.535Z,101015.56
2023-09-14T20:09:11.901Z,101016.41
2023-09-14T20:14:08.883Z,101019.78
2023-09-14T20:19:07.456Z,101024.25
2023-09-14T20:24:04.355Z,101030.50
2023-09-14T20:29:01.675Z,101027.09
2023-09-14T20:33:58.290Z,101028.66
2023-09-14T20:38:56.420Z,101029.81
2023-09-14T20:43:54.029Z,101035.69
2023-09-14T20:48:51.386Z,101043.38
2023-09-14T20:53:48.004Z,101044.84
2023-09-14T20:58:44.888Z,101046.53
2023-09-14T21:03:42.100Z,101047.91
2023-09-14T21:08:39.291Z,101057.94
2023-09-14T21:13:35.798Z,101049.19
2023-09-14T21:18:32.310Z,101042.22
2023-09-14T21:23:29.038Z,101040.84
2023-09-14T21:28:26.606Z,101036.91
2023-09-14T21:33:23.311Z,101037.72
2023-09-14T21:38:20.975Z,101033.16
2023-09-14T21:43:17.727Z,101031.78
2023-09-14T21:48:15.048Z,101029.41
2023-09-14T21:53:11.662Z,101035.09
2023-09-14T21:58:09.244Z,101032.81
2023-09-14T22:03:06.305Z,101037.28
2023-09-14T22:08:03.752Z,101036.88
2023-09-14T22:13:00.355Z,101035.38
2023-09-14T22:17:57.023Z,101041.00
2023-09-14T22:22:53.647Z,101036.34
2023-09-14T22:27:51.188Z,101036.22
2023-09-14T22:32:48.414Z,101039.56
2023-09-14T22:37:50.833Z,101050.09
2023-09-14T22:42:47.878Z,101056.44
2023-09-14T22:47:45.238Z,101054.06
2023-09-14T22:52:43.008Z,101056.22
2023-09-14T22:57:39.623Z,101049.97
2023-09-14T23:02:37.030Z,101052.41
2023-09-14T23:07:34.311Z,101048.31
2023-09-14T23:12:30.947Z,101046.28
2023-09-14T23:17:29.627Z,101049.31
2023-09-14T23:22:26.385Z,101047.25
2023-09-14T23:27:26.844Z,101056.44
2023-09-14T23:32:24.765Z,101054.34
2023-09-14T23:37:21.300Z,101063.16
2023-09-14T23:42:17.809Z,101053.09
2023-09-14T23:47:15.184Z,101058.28
2023-09-14T23:52:11.900Z,101066.53
2023-09-14T23:57:08.603Z,101063.84
